Time;durP1;ratioP1;P1;durP2;ratioP2;P2;SDS_P1;SDS_P2;PMS_P1;PMS_P2;Temp;Humidity;BMP_temperature;BMP_pressure;BME280_temperature;BME280_humidity;BME280_pressure;Samples;Min_cycle;Max_cycle;Signal;HPM_P1;HPM_P2
2023/05/05 00:02:19;;;;;;;8.07;3.10;;;;;;;;;;4980894;28;20238;-79
2023/05/05 00:04:45;;;;;;;9.40;3.10;;;;;;;;;;4964433;28;20247;-78
2023/05/05 00:07:13;;;;;;;4.63;2.83;;;;;;;;;;4948714;28;20305;-82
2023/05/05 00:09:39;;;;;;;7.70;3.17;;;;;;;;;;4997379;28;20297;-82
2023/05/05 00:12:05;;;;;;;6.10;2.80;;;;;;;;;;4964999;28;20698;-78
2023/05/05 00:14:31;;;;;;;5.10;2.70;;;;;;;;;;4959863;28;20229;-78
2023/05/05 00:16:56;;;;;;;7.07;3.17;;;;;;;;;;4963268;28;20226;-79
2023/05/05 00:19:21;;;;;;;6.17;3.17;;;;;;;;;;4971207;28;20266;-79
2023/05/05 00:21:47;;;;;;;4.87;3.10;;;;;;;;;;4963255;28;20291;-79
2023/05/05 00:24:12;;;;;;;6.37;3.13;;;;;;;;;;4964452;28;20228;-79
2023/05/05 00:26:43;;;;;;;5.27;2.80;;;;;;;;;;4962033;28;20227;-78
2023/05/05 00:29:09;;;;;;;6.20;2.80;;;;;;;;;;4966319;28;20614;-81
2023/05/05 00:31:34;;;;;;;6.50;2.97;;;;;;;;;;4972813;28;20222;-78
2023/05/05 00:34:02;;;;;;;8.40;3.20;;;;;;;;;;4949101;28;20267;-79
2023/05/05 00:36:27;;;;;;;5.00;3.10;;;;;;;;;;4960231;28;20225;-79
2023/05/05 00:38:56;;;;;;;7.23;3.10;;;;;;;;;;4981618;28;20245;-77
2023/05/05 00:41:23;;;;;;;7.60;3.20;;;;;;;;;;4962134;28;20757;-79
2023/05/05 00:43:51;;;;;;;8.00;2.93;;;;;;;;;;4978536;28;20228;-80
2023/05/05 00:46:24;;;;;;;8.10;3.37;;;;;;;;;;4949920;28;20323;-80
2023/05/05 00:48:51;;;;;;;6.83;3.17;;;;;;;;;;4967864;28;20232;-80
2023/05/05 00:51:22;;;;;;;9.03;3.57;;;;;;;;;;4965904;28;20307;-80
2023/05/05 00:53:47;;;;;;;5.77;3.47;;;;;;;;;;4950516;28;20272;-80
2023/05/05 00:56:16;;;;;;;8.13;3.33;;;;;;;;;;4951615;28;20216;-79
2023/05/05 00:58:43;;;;;;;8.93;3.13;;;;;;;;;;4951634;28;20708;-80
2023/05/05 01:01:10;;;;;;;7.07;3.50;;;;;;;;;;4966497;28;20224;-78
2023/05/05 01:03:41;;;;;;;7.73;3.33;;;;;;;;;;4964728;28;20293;-80
2023/05/05 01:06:44;;;;;;;8.63;3.50;;;;;;;;;;4977979;28;20264;-78
2023/05/05 01:09:32;;;;;;;5.40;3.47;;;;;;;;;;5000363;28;20259;-79
2023/05/05 01:12:21;;;;;;;8.17;3.30;;;;;;;;;;4978020;28;20316;-79
2023/05/05 01:14:51;;;;;;;6.17;3.40;;;;;;;;;;4980037;28;20308;-81
2023/05/05 01:17:21;;;;;;;9.37;3.43;;;;;;;;;;4972990;28;20368;-78
2023/05/05 01:20:14;;;;;;;5.53;3.30;;;;;;;;;;4966383;28;20296;-79
2023/05/05 01:22:49;;;;;;;8.43;3.60;;;;;;;;;;4970731;28;20229;-78
2023/05/05 01:25:46;;;;;;;5.57;3.27;;;;;;;;;;4964870;28;20264;-79
2023/05/05 01:28:27;;;;;;;6.57;3.70;;;;;;;;;;4984086;28;20272;-80
2023/05/05 01:31:16;;;;;;;8.00;3.50;;;;;;;;;;4974361;28;20256;-79
2023/05/05 01:33:45;;;;;;;6.47;3.30;;;;;;;;;;4980948;28;20222;-79
2023/05/05 01:36:14;;;;;;;7.33;3.47;;;;;;;;;;4947377;28;20237;-80
2023/05/05 01:38:43;;;;;;;8.17;3.80;;;;;;;;;;4962406;28;20241;-79
2023/05/05 01:41:29;;;;;;;5.63;3.47;;;;;;;;;;4961119;28;20276;-79
2023/05/05 01:43:58;;;;;;;8.57;3.33;;;;;;;;;;4962142;28;20594;-78
2023/05/05 01:46:24;;;;;;;10.40;4.10;;;;;;;;;;4953993;28;20217;-79
2023/05/05 01:48:52;;;;;;;8.03;3.30;;;;;;;;;;4965232;28;20232;-78
2023/05/05 01:51:18;;;;;;;7.57;3.40;;;;;;;;;;4974945;28;20208;-78
2023/05/05 01:53:46;;;;;;;7.33;3.60;;;;;;;;;;4964914;28;20642;-78
2023/05/05 01:56:11;;;;;;;6.67;3.50;;;;;;;;;;4981985;28;20225;-79
2023/05/05 01:58:40;;;;;;;7.33;3.60;;;;;;;;;;4949594;28;20216;-79
2023/05/05 02:01:09;;;;;;;9.20;4.00;;;;;;;;;;4953222;28;20220;-78
2023/05/05 02:03:36;;;;;;;8.27;4.00;;;;;;;;;;4975326;28;20225;-77
2023/05/05 02:06:02;;;;;;;8.17;3.53;;;;;;;;;;4972093;28;20226;-77
2023/05/05 02:08:28;;;;;;;8.40;3.83;;;;;;;;;;4970698;28;20333;-80
2023/05/05 02:10:53;;;;;;;5.70;3.43;;;;;;;;;;4952080;28;20650;-80
2023/05/05 02:13:19;;;;;;;7.93;3.50;;;;;;;;;;4951189;28;20240;-80
2023/05/05 02:15:46;;;;;;;8.17;3.60;;;;;;;;;;4950021;28;20230;-78
2023/05/05 02:18:12;;;;;;;4.70;3.23;;;;;;;;;;4971707;28;20232;-77
2023/05/05 02:20:37;;;;;;;7.43;3.70;;;;;;;;;;4936236;28;20238;-79
2023/05/05 02:23:05;;;;;;;8.50;3.93;;;;;;;;;;4953849;28;20226;-80
2023/05/05 02:25:52;;;;;;;6.53;3.53;;;;;;;;;;4958540;28;20295;-80
2023/05/05 02:28:29;;;;;;;8.60;3.53;;;;;;;;;;4977892;28;20217;-80
2023/05/05 02:30:56;;;;;;;7.90;4.17;;;;;;;;;;4968644;28;20631;-76
2023/05/05 02:33:21;;;;;;;7.53;4.03;;;;;;;;;;4969419;28;20222;-79
2023/05/05 02:35:52;;;;;;;8.97;3.80;;;;;;;;;;4951193;28;20250;-78
2023/05/05 02:38:22;;;;;;;7.33;3.73;;;;;;;;;;4964951;28;20228;-80
2023/05/05 02:40:51;;;;;;;6.97;3.87;;;;;;;;;;4985577;28;20228;-80
2023/05/05 02:43:18;;;;;;;7.67;3.63;;;;;;;;;;4950772;28;20221;-77
2023/05/05 02:45:47;;;;;;;5.77;4.07;;;;;;;;;;4973425;28;20221;-79
2023/05/05 02:48:13;;;;;;;6.83;4.00;;;;;;;;;;4966990;28;20233;-78
2023/05/05 02:50:39;;;;;;;8.30;3.93;;;;;;;;;;4979204;28;20345;-77
2023/05/05 02:53:18;;;;;;;7.13;3.13;;;;;;;;;;4951249;28;20222;-78
2023/05/05 02:56:03;;;;;;;5.80;3.63;;;;;;;;;;4947691;28;20606;-78
2023/05/05 02:58:40;;;;;;;7.07;3.53;;;;;;;;;;4971980;28;20240;-78
2023/05/05 03:01:32;;;;;;;5.37;3.70;;;;;;;;;;4960262;28;20284;-77
2023/05/05 03:04:06;;;;;;;6.20;3.33;;;;;;;;;;4996804;28;20764;-80
2023/05/05 03:06:39;;;;;;;6.50;3.60;;;;;;;;;;4976773;28;20228;-80
2023/05/05 03:09:10;;;;;;;7.10;3.60;;;;;;;;;;4947005;28;20213;-79
2023/05/05 03:11:44;;;;;;;7.57;3.50;;;;;;;;;;4961266;28;20763;-80
2023/05/05 03:14:17;;;;;;;6.10;3.60;;;;;;;;;;4981400;28;20230;-78
2023/05/05 03:16:44;;;;;;;7.80;3.87;;;;;;;;;;4967799;28;20304;-79
2023/05/05 03:19:11;;;;;;;6.83;3.40;;;;;;;;;;4951781;28;20610;-80
2023/05/05 03:21:40;;;;;;;7.93;4.10;;;;;;;;;;4952732;28;20848;-80
2023/05/05 03:24:21;;;;;;;6.37;3.70;;;;;;;;;;4983350;28;20686;-78
2023/05/05 03:27:00;;;;;;;6.37;3.70;;;;;;;;;;4980786;28;20232;-81
2023/05/05 03:29:31;;;;;;;8.03;3.67;;;;;;;;;;4955398;28;20604;-78
2023/05/05 03:31:57;;;;;;;5.87;3.70;;;;;;;;;;4966904;28;20221;-79
2023/05/05 03:34:26;;;;;;;7.57;3.67;;;;;;;;;;4969118;28;20287;-79
2023/05/05 03:36:53;;;;;;;6.80;3.60;;;;;;;;;;4968553;28;20714;-79
2023/05/05 03:39:19;;;;;;;9.23;4.13;;;;;;;;;;4965435;28;20217;-78
2023/05/05 03:41:45;;;;;;;7.67;3.50;;;;;;;;;;4986702;28;20663;-79
2023/05/05 03:44:12;;;;;;;7.57;3.60;;;;;;;;;;4954725;28;20765;-78
2023/05/05 03:46:38;;;;;;;9.53;3.93;;;;;;;;;;4966675;28;20239;-77
2023/05/05 03:49:08;;;;;;;10.30;4.30;;;;;;;;;;4954963;28;20304;-79
2023/05/05 03:51:35;;;;;;;6.90;3.73;;;;;;;;;;4948775;28;20220;-78
2023/05/05 03:54:01;;;;;;;7.73;3.80;;;;;;;;;;4950705;28;20205;-79
2023/05/05 03:56:26;;;;;;;8.50;3.60;;;;;;;;;;4947473;28;20232;-80
2023/05/05 03:58:54;;;;;;;9.27;3.80;;;;;;;;;;4949259;28;20283;-80
2023/05/05 04:01:20;;;;;;;6.20;3.70;;;;;;;;;;4969478;28;20221;-80
2023/05/05 04:03:45;;;;;;;6.10;3.63;;;;;;;;;;4966505;28;20283;-80
2023/05/05 04:06:11;;;;;;;7.53;3.40;;;;;;;;;;4947100;28;20279;-78
2023/05/05 04:08:37;;;;;;;7.40;3.50;;;;;;;;;;4979239;28;20263;-79
2023/05/05 04:11:06;;;;;;;5.53;3.53;;;;;;;;;;4971679;28;20259;-78
2023/05/05 04:13:35;;;;;;;7.93;3.50;;;;;;;;;;4978853;28;20232;-77
2023/05/05 04:16:01;;;;;;;7.83;3.97;;;;;;;;;;4985784;28;20222;-78
2023/05/05 04:18:30;;;;;;;7.47;3.77;;;;;;;;;;4969281;28;20225;-79
2023/05/05 04:20:56;;;;;;;7.47;3.63;;;;;;;;;;4968363;28;20259;-77
2023/05/05 04:23:24;;;;;;;6.00;3.70;;;;;;;;;;4952648;28;20217;-76
2023/05/05 04:25:50;;;;;;;8.77;3.67;;;;;;;;;;5001615;28;20213;-77
2023/05/05 04:28:16;;;;;;;5.77;3.37;;;;;;;;;;4952331;28;20231;-80
2023/05/05 04:30:44;;;;;;;7.20;3.70;;;;;;;;;;4952543;28;20275;-78
2023/05/05 04:33:10;;;;;;;7.27;3.50;;;;;;;;;;4962690;28;20221;-79
2023/05/05 04:35:38;;;;;;;9.10;3.73;;;;;;;;;;4955309;28;20217;-79
2023/05/05 04:38:03;;;;;;;7.07;3.30;;;;;;;;;;4956335;28;20225;-80
2023/05/05 04:40:29;;;;;;;6.63;3.37;;;;;;;;;;4969900;28;20232;-81
2023/05/05 04:42:56;;;;;;;8.57;3.63;;;;;;;;;;4973414;28;20288;-79
2023/05/05 04:45:22;;;;;;;9.17;3.60;;;;;;;;;;4969036;28;20257;-77
2023/05/05 04:47:48;;;;;;;7.30;3.80;;;;;;;;;;4976678;28;20223;-81
2023/05/05 04:50:14;;;;;;;6.00;3.47;;;;;;;;;;4968571;28;20657;-79
2023/05/05 04:52:39;;;;;;;7.07;3.60;;;;;;;;;;4968028;28;20225;-80
2023/05/05 04:55:05;;;;;;;7.17;3.10;;;;;;;;;;4962254;28;20216;-82
2023/05/05 04:57:32;;;;;;;7.50;3.63;;;;;;;;;;4948429;28;20247;-81
2023/05/05 04:59:58;;;;;;;5.17;3.20;;;;;;;;;;4964229;28;20694;-80
2023/05/05 05:02:26;;;;;;;7.77;3.40;;;;;;;;;;4961439;28;20771;-81
2023/05/05 05:04:52;;;;;;;7.33;3.27;;;;;;;;;;4950102;28;20590;-79
2023/05/05 05:07:17;;;;;;;5.67;3.37;;;;;;;;;;4966068;28;20232;-81
2023/05/05 05:09:43;;;;;;;9.23;4.20;;;;;;;;;;4981238;28;20260;-81
2023/05/05 05:12:08;;;;;;;6.37;3.33;;;;;;;;;;4948308;28;20587;-80
2023/05/05 05:14:38;;;;;;;6.10;3.33;;;;;;;;;;4961620;28;20692;-81
2023/05/05 05:17:04;;;;;;;8.83;3.50;;;;;;;;;;4940975;28;20321;-79
2023/05/05 05:19:31;;;;;;;7.67;3.40;;;;;;;;;;4981731;28;20236;-80
2023/05/05 05:21:57;;;;;;;4.83;2.83;;;;;;;;;;4985275;28;20221;-81
2023/05/05 05:24:24;;;;;;;6.90;3.47;;;;;;;;;;4949777;28;20252;-77
2023/05/05 05:26:51;;;;;;;6.37;3.00;;;;;;;;;;4964126;28;20271;-78
2023/05/05 05:29:17;;;;;;;5.07;3.20;;;;;;;;;;4964059;28;20677;-80
2023/05/05 05:31:43;;;;;;;6.53;3.53;;;;;;;;;;4973566;28;20271;-78
2023/05/05 05:34:08;;;;;;;5.50;3.43;;;;;;;;;;4981124;28;20225;-80
2023/05/05 05:36:35;;;;;;;6.47;3.17;;;;;;;;;;4969206;28;20229;-78
2023/05/05 05:39:01;;;;;;;4.90;3.20;;;;;;;;;;4965888;28;20243;-80
2023/05/05 05:41:29;;;;;;;11.13;3.30;;;;;;;;;;4969325;28;20450;-79
2023/05/05 05:43:55;;;;;;;4.27;2.97;;;;;;;;;;4964332;28;20340;-78
2023/05/05 05:46:21;;;;;;;4.67;3.00;;;;;;;;;;4966076;28;20221;-78
2023/05/05 05:48:47;;;;;;;5.70;2.90;;;;;;;;;;4950970;28;20230;-78
2023/05/05 05:51:13;;;;;;;5.47;3.13;;;;;;;;;;4997754;28;20229;-81
2023/05/05 05:53:41;;;;;;;6.57;3.07;;;;;;;;;;4982924;28;20286;-82
2023/05/05 05:56:08;;;;;;;7.33;3.20;;;;;;;;;;4951488;28;20339;-78
2023/05/05 05:58:39;;;;;;;7.03;3.30;;;;;;;;;;4964178;28;20249;-77
2023/05/05 06:01:08;;;;;;;5.10;2.93;;;;;;;;;;4982080;28;20239;-80
2023/05/05 06:03:34;;;;;;;6.07;3.10;;;;;;;;;;4959485;28;20600;-79
2023/05/05 06:05:59;;;;;;;6.83;3.27;;;;;;;;;;4974627;28;20213;-78
2023/05/05 06:08:25;;;;;;;7.17;3.10;;;;;;;;;;4970109;28;20217;-77
2023/05/05 06:10:55;;;;;;;9.73;3.40;;;;;;;;;;4977559;28;20213;-78
2023/05/05 06:13:22;;;;;;;7.33;3.50;;;;;;;;;;4948549;28;20248;-80
2023/05/05 06:15:49;;;;;;;4.13;3.27;;;;;;;;;;4964577;28;20288;-81
2023/05/05 06:18:17;;;;;;;5.90;2.90;;;;;;;;;;4979305;28;20228;-78
2023/05/05 06:20:43;;;;;;;6.27;3.20;;;;;;;;;;4964597;28;20224;-78
2023/05/05 06:23:13;;;;;;;6.17;3.20;;;;;;;;;;4977352;28;20686;-78
2023/05/05 06:25:46;;;;;;;8.93;3.70;;;;;;;;;;4966869;28;20213;-78
2023/05/05 06:28:12;;;;;;;6.17;3.30;;;;;;;;;;4978374;28;20339;-77
2023/05/05 06:30:40;;;;;;;6.00;2.80;;;;;;;;;;4975970;28;20232;-78
2023/05/05 06:33:05;;;;;;;4.53;3.40;;;;;;;;;;4979289;28;20749;-76
2023/05/05 06:35:33;;;;;;;5.43;3.00;;;;;;;;;;4961907;28;20220;-79
2023/05/05 06:37:59;;;;;;;4.80;3.00;;;;;;;;;;4967190;28;20686;-77
2023/05/05 06:40:24;;;;;;;8.10;3.47;;;;;;;;;;4953122;28;20225;-78
2023/05/05 06:42:52;;;;;;;4.07;2.77;;;;;;;;;;4968278;28;20324;-78
2023/05/05 06:45:30;;;;;;;6.67;3.43;;;;;;;;;;4950562;28;20221;-79
2023/05/05 06:47:55;;;;;;;7.87;3.37;;;;;;;;;;4995842;28;20225;-78
2023/05/05 06:50:24;;;;;;;7.15;3.17;;;;;;;;;;4985962;28;20268;-81
2023/05/05 06:52:49;;;;;;;5.93;3.50;;;;;;;;;;4969317;28;20221;-80
2023/05/05 06:55:19;;;;;;;6.00;3.10;;;;;;;;;;4982173;28;20228;-79
2023/05/05 06:57:45;;;;;;;4.97;2.88;;;;;;;;;;4982438;28;20706;-77
2023/05/05 07:00:12;;;;;;;4.67;3.13;;;;;;;;;;4981140;28;20229;-80
2023/05/05 07:02:40;;;;;;;5.23;3.20;;;;;;;;;;4961583;28;20230;-78
2023/05/05 07:05:06;;;;;;;6.60;3.53;;;;;;;;;;4970570;28;20698;-78
2023/05/05 07:07:53;;;;;;;4.97;3.20;;;;;;;;;;4985805;28;20241;-79
2023/05/05 07:10:20;;;;;;;4.37;3.10;;;;;;;;;;4951161;28;20225;-79
2023/05/05 07:12:47;;;;;;;5.67;3.53;;;;;;;;;;4969069;28;20237;-78
2023/05/05 07:15:15;;;;;;;4.03;3.00;;;;;;;;;;4966116;28;20243;-80
2023/05/05 07:17:41;;;;;;;7.43;3.27;;;;;;;;;;4966409;28;20225;-78
2023/05/05 07:20:10;;;;;;;5.00;3.07;;;;;;;;;;4979808;28;20388;-80
2023/05/05 07:22:35;;;;;;;7.87;3.10;;;;;;;;;;4977720;28;20233;-78
2023/05/05 07:25:01;;;;;;;5.97;3.45;;;;;;;;;;4965712;28;20236;-80
2023/05/05 07:27:27;;;;;;;6.65;3.25;;;;;;;;;;4965981;28;20256;-80
2023/05/05 07:29:52;;;;;;;3.78;2.92;;;;;;;;;;4963210;28;20504;-81
2023/05/05 07:32:20;;;;;;;5.75;3.22;;;;;;;;;;5001699;28;20225;-78
2023/05/05 07:34:45;;;;;;;5.55;3.25;;;;;;;;;;4973426;28;20232;-77
2023/05/05 07:37:13;;;;;;;6.00;2.95;;;;;;;;;;5006724;28;20229;-78
2023/05/05 07:39:39;;;;;;;3.57;3.00;;;;;;;;;;4953500;28;20618;-79
2023/05/05 07:42:05;;;;;;;5.67;3.00;;;;;;;;;;4946906;28;20752;-82
2023/05/05 07:44:31;;;;;;;5.13;3.10;;;;;;;;;;5000267;28;20225;-80
2023/05/05 07:46:58;;;;;;;4.32;2.83;;;;;;;;;;4982372;28;20221;-80
2023/05/05 07:49:26;;;;;;;7.65;3.33;;;;;;;;;;4969951;28;20229;-81
2023/05/05 07:51:52;;;;;;;4.53;3.15;;;;;;;;;;4982537;28;20283;-81
2023/05/05 07:54:17;;;;;;;5.25;3.15;;;;;;;;;;4980084;28;20217;-78
2023/05/05 07:56:43;;;;;;;6.43;3.03;;;;;;;;;;4951430;28;20383;-79
2023/05/05 07:59:09;;;;;;;9.23;3.67;;;;;;;;;;4964900;28;20226;-81
2023/05/05 08:01:35;;;;;;;6.20;3.28;;;;;;;;;;4966454;28;20243;-81
2023/05/05 08:04:00;;;;;;;6.35;3.58;;;;;;;;;;4965821;28;20225;-81
2023/05/05 08:06:27;;;;;;;5.63;3.38;;;;;;;;;;4983356;28;20220;-80
2023/05/05 08:08:53;;;;;;;5.18;3.28;;;;;;;;;;4966281;28;20240;-79
2023/05/05 08:11:19;;;;;;;5.20;3.30;;;;;;;;;;4964603;28;20220;-80
2023/05/05 08:13:45;;;;;;;5.00;3.03;;;;;;;;;;4961063;28;20221;-79
2023/05/05 08:16:11;;;;;;;5.47;3.17;;;;;;;;;;4946801;28;20226;-82
2023/05/05 08:18:40;;;;;;;4.97;2.92;;;;;;;;;;4969006;28;20238;-79
2023/05/05 08:21:10;;;;;;;6.80;3.33;;;;;;;;;;4945660;28;20213;-80
2023/05/05 08:23:37;;;;;;;4.60;3.20;;;;;;;;;;4966236;28;20251;-79
2023/05/05 08:26:05;;;;;;;5.20;3.40;;;;;;;;;;4965751;28;20407;-81
2023/05/05 08:28:35;;;;;;;5.68;3.30;;;;;;;;;;4948362;28;20720;-81
2023/05/05 08:31:00;;;;;;;5.18;3.40;;;;;;;;;;4950092;28;20228;-81
2023/05/05 08:33:33;;;;;;;4.40;3.42;;;;;;;;;;4961392;28;20256;-79
2023/05/05 08:35:59;;;;;;;5.25;3.75;;;;;;;;;;4982370;28;20225;-80
2023/05/05 08:38:25;;;;;;;6.50;3.50;;;;;;;;;;4952012;28;20225;-81
2023/05/05 08:40:53;;;;;;;3.80;3.17;;;;;;;;;;4945161;28;20230;-79
2023/05/05 08:43:21;;;;;;;4.47;3.55;;;;;;;;;;4972193;28;20228;-78
2023/05/05 08:45:50;;;;;;;7.38;3.60;;;;;;;;;;4970217;28;20221;-79
2023/05/05 08:48:17;;;;;;;8.07;3.85;;;;;;;;;;4975516;28;20288;-81
2023/05/05 08:50:42;;;;;;;7.20;3.90;;;;;;;;;;4958605;28;20233;-81
2023/05/05 08:53:26;;;;;;;4.97;3.70;;;;;;;;;;4964653;28;20225;-81
2023/05/05 08:55:54;;;;;;;6.65;3.63;;;;;;;;;;4960809;28;20229;-82
2023/05/05 08:58:21;;;;;;;5.90;3.65;;;;;;;;;;4939950;28;20689;-81
2023/05/05 09:00:46;;;;;;;5.40;4.00;;;;;;;;;;4960827;28;20944;-81
2023/05/05 09:03:14;;;;;;;4.03;3.28;;;;;;;;;;4977340;28;20225;-81
2023/05/05 09:05:43;;;;;;;7.30;3.80;;;;;;;;;;4966394;28;20267;-79
2023/05/05 09:08:11;;;;;;;5.75;3.80;;;;;;;;;;4963857;28;20233;-81
2023/05/05 09:10:39;;;;;;;5.53;3.60;;;;;;;;;;4960788;28;20241;-80
2023/05/05 09:13:05;;;;;;;7.00;3.60;;;;;;;;;;4947698;28;20280;-80
2023/05/05 09:15:33;;;;;;;4.80;3.70;;;;;;;;;;4963762;28;20637;-78
2023/05/05 09:17:59;;;;;;;6.82;3.60;;;;;;;;;;4958713;28;20232;-79
2023/05/05 09:20:37;;;;;;;8.52;3.95;;;;;;;;;;4944920;28;20230;-78
2023/05/05 09:23:23;;;;;;;5.05;3.70;;;;;;;;;;4962448;28;20248;-80
2023/05/05 09:26:09;;;;;;;7.18;3.72;;;;;;;;;;4997947;28;20234;-80
2023/05/05 09:28:37;;;;;;;8.30;3.63;;;;;;;;;;4977154;28;20233;-79
2023/05/05 09:31:12;;;;;;;4.47;3.55;;;;;;;;;;4946894;28;20241;-80
2023/05/05 09:33:38;;;;;;;6.20;3.38;;;;;;;;;;4945962;28;20232;-78
2023/05/05 09:36:03;;;;;;;5.32;3.53;;;;;;;;;;4979678;28;20236;-78
2023/05/05 09:38:29;;;;;;;5.38;3.40;;;;;;;;;;4971306;28;20251;-81
2023/05/05 09:40:57;;;;;;;7.28;3.33;;;;;;;;;;4971281;28;20228;-79
2023/05/05 09:43:27;;;;;;;8.13;3.60;;;;;;;;;;4966886;28;20221;-77
2023/05/05 09:46:05;;;;;;;6.18;3.47;;;;;;;;;;4966126;28;20225;-78
2023/05/05 09:48:30;;;;;;;7.80;3.53;;;;;;;;;;4970786;28;20240;-79
2023/05/05 09:50:58;;;;;;;6.32;3.53;;;;;;;;;;4955735;28;20244;-77
2023/05/05 09:53:24;;;;;;;6.07;3.40;;;;;;;;;;4955057;28;20230;-80
2023/05/05 09:55:57;;;;;;;5.15;3.40;;;;;;;;;;4957817;28;20835;-82
2023/05/05 09:58:24;;;;;;;6.22;3.45;;;;;;;;;;4960713;28;20224;-78
2023/05/05 10:00:49;;;;;;;6.03;3.80;;;;;;;;;;4960246;28;20252;-78
2023/05/05 10:03:15;;;;;;;7.57;3.72;;;;;;;;;;4952927;28;20256;-78
2023/05/05 10:05:57;;;;;;;5.05;3.63;;;;;;;;;;4968202;28;20277;-80
2023/05/05 10:08:30;;;;;;;6.55;3.97;;;;;;;;;;4979113;28;20264;-80
2023/05/05 10:11:00;;;;;;;5.97;3.78;;;;;;;;;;4982305;28;20838;-78
2023/05/05 10:13:26;;;;;;;5.45;3.85;;;;;;;;;;4948316;28;20217;-77
2023/05/05 10:15:55;;;;;;;5.38;3.67;;;;;;;;;;4953286;28;20224;-78
2023/05/05 10:18:22;;;;;;;6.50;3.80;;;;;;;;;;4964449;28;20221;-79
2023/05/05 10:20:50;;;;;;;6.82;4.10;;;;;;;;;;4948199;28;20260;-76
2023/05/05 10:23:20;;;;;;;6.05;3.85;;;;;;;;;;4965990;28;20229;-77
2023/05/05 10:25:49;;;;;;;4.00;3.30;;;;;;;;;;4966422;28;20730;-79
2023/05/05 10:28:20;;;;;;;4.63;3.42;;;;;;;;;;4979195;28;20221;-78
2023/05/05 10:30:46;;;;;;;7.40;4.03;;;;;;;;;;4952584;28;20221;-78
2023/05/05 10:33:18;;;;;;;5.70;3.63;;;;;;;;;;4959647;28;20248;-79
2023/05/05 10:35:43;;;;;;;8.02;3.90;;;;;;;;;;4975851;28;20233;-82
2023/05/05 10:38:10;;;;;;;5.53;3.72;;;;;;;;;;4951130;28;20279;-80
2023/05/05 10:40:35;;;;;;;8.15;4.03;;;;;;;;;;4951701;28;20237;-79
2023/05/05 10:43:01;;;;;;;8.13;3.55;;;;;;;;;;4972975;28;20236;-78
2023/05/05 10:45:29;;;;;;;9.18;3.75;;;;;;;;;;4957493;28;20673;-79
2023/05/05 10:47:55;;;;;;;4.88;3.63;;;;;;;;;;4972094;28;20229;-81
2023/05/05 10:50:39;;;;;;;4.40;3.63;;;;;;;;;;4980763;28;20229;-81
2023/05/05 10:53:40;;;;;;;8.43;3.97;;;;;;;;;;4964295;28;20708;-80
2023/05/05 10:56:11;;;;;;;5.82;3.53;;;;;;;;;;4960388;28;20219;-79
2023/05/05 10:58:38;;;;;;;5.95;3.83;;;;;;;;;;4981853;28;20256;-80
2023/05/05 11:01:05;;;;;;;6.93;3.75;;;;;;;;;;4966335;28;20304;-80
2023/05/05 11:03:30;;;;;;;8.90;3.50;;;;;;;;;;4962672;28;20230;-78
2023/05/05 11:06:07;;;;;;;4.28;3.25;;;;;;;;;;4947387;28;20217;-80
2023/05/05 11:08:39;;;;;;;8.80;3.70;;;;;;;;;;4980186;28;20248;-79
2023/05/05 11:11:10;;;;;;;8.27;3.22;;;;;;;;;;4983305;28;20231;-78
2023/05/05 11:13:37;;;;;;;4.70;3.58;;;;;;;;;;4965273;28;20817;-80
2023/05/05 11:16:03;;;;;;;5.07;3.42;;;;;;;;;;4964783;28;20242;-78
2023/05/05 11:18:32;;;;;;;8.07;3.40;;;;;;;;;;4949811;28;20302;-81
2023/05/05 11:20:58;;;;;;;8.00;3.67;;;;;;;;;;4980741;28;20243;-80
2023/05/05 11:23:26;;;;;;;4.47;3.63;;;;;;;;;;4991029;28;20702;-76
2023/05/05 11:25:52;;;;;;;5.63;3.70;;;;;;;;;;4966769;28;20304;-79
2023/05/05 11:28:24;;;;;;;8.25;3.80;;;;;;;;;;4963161;28;20293;-81
2023/05/05 11:30:55;;;;;;;8.55;3.60;;;;;;;;;;4982393;28;20718;-81
2023/05/05 11:33:28;;;;;;;7.03;3.63;;;;;;;;;;4983660;28;20236;-80
2023/05/05 11:36:00;;;;;;;5.75;3.28;;;;;;;;;;4966204;28;20283;-77
2023/05/05 11:38:31;;;;;;;5.68;3.63;;;;;;;;;;4981126;28;20316;-76
2023/05/05 11:41:00;;;;;;;6.25;3.60;;;;;;;;;;4963685;28;20240;-80
2023/05/05 11:43:25;;;;;;;6.07;3.58;;;;;;;;;;4980956;28;20694;-78
2023/05/05 11:46:18;;;;;;;5.05;3.45;;;;;;;;;;4982947;28;20320;-80
2023/05/05 11:48:47;;;;;;;5.90;3.38;;;;;;;;;;4963624;28;20244;-80
2023/05/05 11:51:13;;;;;;;6.22;4.10;;;;;;;;;;4978476;28;20232;-78
2023/05/05 11:53:43;;;;;;;6.55;4.00;;;;;;;;;;4947391;28;20240;-79
2023/05/05 11:56:09;;;;;;;5.40;3.75;;;;;;;;;;4960735;28;20267;-81
2023/05/05 11:58:37;;;;;;;5.75;3.80;;;;;;;;;;4964003;28;20225;-81
2023/05/05 12:01:08;;;;;;;6.75;3.95;;;;;;;;;;4982253;28;20228;-79
2023/05/05 12:03:37;;;;;;;5.80;3.78;;;;;;;;;;4957055;28;20658;-78
2023/05/05 12:06:03;;;;;;;4.47;3.65;;;;;;;;;;4963875;28;20300;-77
2023/05/05 12:08:35;;;;;;;6.47;4.30;;;;;;;;;;4961961;28;20291;-81
2023/05/05 12:11:09;;;;;;;4.80;3.90;;;;;;;;;;4963952;28;20314;-80
2023/05/05 12:13:34;;;;;;;5.53;4.03;;;;;;;;;;4981099;28;20228;-79
2023/05/05 12:16:18;;;;;;;8.82;4.18;;;;;;;;;;4966065;28;20209;-79
2023/05/05 12:18:45;;;;;;;5.30;4.05;;;;;;;;;;4992456;28;20360;-79
2023/05/05 12:21:20;;;;;;;7.70;4.03;;;;;;;;;;4965272;28;20229;-81
2023/05/05 12:23:48;;;;;;;6.47;3.72;;;;;;;;;;4971625;28;20217;-79
2023/05/05 12:26:33;;;;;;;6.70;3.95;;;;;;;;;;4985651;28;20217;-79
2023/05/05 12:29:01;;;;;;;8.07;4.20;;;;;;;;;;4965132;28;20238;-78
2023/05/05 12:31:34;;;;;;;4.95;3.78;;;;;;;;;;4967330;28;20236;-79
2023/05/05 12:33:59;;;;;;;5.78;3.95;;;;;;;;;;4946400;28;20235;-79
2023/05/05 12:36:29;;;;;;;5.55;4.05;;;;;;;;;;4974315;28;20230;-81
2023/05/05 12:38:55;;;;;;;4.55;3.80;;;;;;;;;;4978144;28;20962;-79
2023/05/05 12:41:21;;;;;;;6.57;3.80;;;;;;;;;;4965485;28;20217;-80
2023/05/05 12:43:46;;;;;;;5.13;3.97;;;;;;;;;;4964417;28;20291;-79
2023/05/05 12:46:12;;;;;;;6.18;4.10;;;;;;;;;;4979915;28;20986;-81
2023/05/05 12:48:39;;;;;;;7.10;4.03;;;;;;;;;;4968610;28;20244;-80
2023/05/05 12:51:10;;;;;;;7.57;4.03;;;;;;;;;;4952177;28;20252;-80
2023/05/05 12:53:35;;;;;;;6.38;4.10;;;;;;;;;;4989962;28;20251;-79
2023/05/05 12:56:03;;;;;;;7.53;4.45;;;;;;;;;;4973224;28;20255;-81
2023/05/05 12:58:45;;;;;;;8.32;3.95;;;;;;;;;;4976539;28;20244;-79
2023/05/05 13:01:11;;;;;;;4.50;4.07;;;;;;;;;;5005292;28;20249;-78
2023/05/05 13:03:36;;;;;;;7.05;4.13;;;;;;;;;;4968488;28;20221;-79
2023/05/05 13:06:18;;;;;;;6.82;4.20;;;;;;;;;;4948490;28;20986;-78
2023/05/05 13:08:44;;;;;;;6.22;3.72;;;;;;;;;;4974870;28;20692;-80
2023/05/05 13:11:09;;;;;;;5.82;3.90;;;;;;;;;;4965902;28;20232;-79
2023/05/05 13:13:37;;;;;;;4.20;3.58;;;;;;;;;;4983843;28;20271;-81
2023/05/05 13:16:03;;;;;;;5.00;3.72;;;;;;;;;;4967237;28;20605;-79
2023/05/05 13:18:29;;;;;;;5.57;3.97;;;;;;;;;;4966157;28;20221;-79
2023/05/05 13:20:54;;;;;;;5.22;3.95;;;;;;;;;;4949071;28;20251;-80
2023/05/05 13:23:20;;;;;;;5.63;3.63;;;;;;;;;;4962229;28;20271;-78
2023/05/05 13:25:46;;;;;;;7.40;3.67;;;;;;;;;;4946888;28;20233;-81
2023/05/05 13:28:14;;;;;;;4.57;3.05;;;;;;;;;;4964309;28;20221;-77
2023/05/05 13:30:40;;;;;;;7.30;3.78;;;;;;;;;;4980062;28;20225;-81
2023/05/05 13:33:06;;;;;;;6.13;3.72;;;;;;;;;;4946386;28;20722;-80
2023/05/05 13:35:31;;;;;;;7.13;3.50;;;;;;;;;;4981802;28;20237;-79
2023/05/05 13:37:57;;;;;;;6.18;3.17;;;;;;;;;;4971008;28;20236;-79
2023/05/05 13:40:22;;;;;;;5.05;3.25;;;;;;;;;;4964426;28;20255;-78
2023/05/05 13:42:48;;;;;;;4.88;3.65;;;;;;;;;;4953127;28;20224;-80
2023/05/05 13:45:13;;;;;;;6.50;3.30;;;;;;;;;;4967259;28;20217;-79
2023/05/05 13:47:43;;;;;;;6.38;3.63;;;;;;;;;;4971098;28;20220;-81
2023/05/05 13:50:08;;;;;;;5.32;3.33;;;;;;;;;;4979553;28;20640;-80
2023/05/05 13:52:34;;;;;;;5.15;3.65;;;;;;;;;;4952186;28;20221;-79
2023/05/05 13:55:00;;;;;;;5.97;3.85;;;;;;;;;;4985379;28;20258;-78
2023/05/05 13:57:25;;;;;;;10.05;3.67;;;;;;;;;;4965073;28;20228;-78
2023/05/05 13:59:56;;;;;;;5.53;3.60;;;;;;;;;;4970446;28;20248;-79
2023/05/05 14:02:21;;;;;;;6.28;3.50;;;;;;;;;;4966696;28;20245;-79
2023/05/05 14:04:47;;;;;;;6.97;3.40;;;;;;;;;;4966949;28;20225;-79
2023/05/05 14:07:12;;;;;;;7.32;3.58;;;;;;;;;;4950834;28;20283;-80
2023/05/05 14:09:38;;;;;;;5.45;3.50;;;;;;;;;;4982863;28;20626;-80
2023/05/05 14:12:04;;;;;;;6.20;3.80;;;;;;;;;;4983867;28;20263;-78
2023/05/05 14:14:29;;;;;;;6.45;3.50;;;;;;;;;;4983250;28;20296;-76
2023/05/05 14:16:57;;;;;;;4.78;3.20;;;;;;;;;;4998400;28;20858;-79
2023/05/05 14:19:27;;;;;;;6.35;3.22;;;;;;;;;;4966780;28;20228;-80
2023/05/05 14:21:56;;;;;;;5.65;3.45;;;;;;;;;;4984209;28;20220;-81
2023/05/05 14:24:21;;;;;;;6.03;3.30;;;;;;;;;;4948980;28;20220;-80
2023/05/05 14:26:48;;;;;;;8.57;3.58;;;;;;;;;;4956488;28;20214;-81
2023/05/05 14:29:13;;;;;;;5.18;3.30;;;;;;;;;;4981760;28;21028;-79
2023/05/05 14:31:42;;;;;;;4.15;3.08;;;;;;;;;;4968353;28;20237;-79
2023/05/05 14:34:09;;;;;;;4.38;3.45;;;;;;;;;;4968312;28;20340;-80
2023/05/05 14:36:35;;;;;;;5.00;3.47;;;;;;;;;;4968446;28;20279;-79
2023/05/05 14:39:00;;;;;;;9.25;3.55;;;;;;;;;;4973146;28;20229;-79
2023/05/05 14:41:30;;;;;;;7.63;3.35;;;;;;;;;;4933167;28;20241;-78
2023/05/05 14:43:56;;;;;;;11.52;3.45;;;;;;;;;;4980672;28;20232;-79
2023/05/05 14:46:22;;;;;;;4.85;3.17;;;;;;;;;;4980311;28;20223;-79
2023/05/05 14:48:48;;;;;;;8.48;3.20;;;;;;;;;;4972296;28;20232;-79
2023/05/05 14:51:19;;;;;;;4.60;3.10;;;;;;;;;;4951837;28;21115;-79
2023/05/05 14:53:44;;;;;;;5.47;3.17;;;;;;;;;;4964864;28;20240;-78